Terminal Aerodrome Forecast
Issued by NWS

Home | Current Version | Previous Version | Text Only | Print | Product List | Glossary On
Versions: 1 2 3 4 5 6 7 8 9 10 11 12 13 14 15 16 17 18 19
000
FTUS42 KFFC 181743
TAFRYY
TAF
KRYY 181743Z 1818/1918 32005KT P6SM BKN060
     FM190100 31003KT P6SM SCT080 BKN150
     FM190900 00000KT P6SM SCT150
     FM191600 01004KT P6SM BKN150=

USA.gov is the U.S. government's official web portal to all federal, state and local government web resources and services.